sensor_id;sensor_type;location;lat;lon;timestamp;P1;durP1;ratioP1;P2;durP2;ratioP2
7879;SDS011;3985;49.366;2.738;2022-07-29T00:01:23;4.67;;;4.67;;
7879;SDS011;3985;49.366;2.738;2022-07-29T00:03:51;4.67;;;4.67;;
7879;SDS011;3985;49.366;2.738;2022-07-29T00:06:19;3.00;;;3.00;;
7879;SDS011;3985;49.366;2.738;2022-07-29T00:08:47;4.00;;;4.00;;
7879;SDS011;3985;49.366;2.738;2022-07-29T00:11:15;3.67;;;3.67;;
7879;SDS011;3985;49.366;2.738;2022-07-29T00:13:43;6.67;;;5.67;;
7879;SDS011;3985;49.366;2.738;2022-07-29T00:16:10;5.00;;;3.00;;
7879;SDS011;3985;49.366;2.738;2022-07-29T00:18:37;3.33;;;3.33;;
7879;SDS011;3985;49.366;2.738;2022-07-29T00:21:05;4.67;;;4.67;;
7879;SDS011;3985;49.366;2.738;2022-07-29T00:23:32;4.00;;;4.00;;
7879;SDS011;3985;49.366;2.738;2022-07-29T00:25:59;4.00;;;4.00;;
7879;SDS011;3985;49.366;2.738;2022-07-29T00:28:28;5.00;;;5.00;;
7879;SDS011;3985;49.366;2.738;2022-07-29T00:30:56;4.00;;;4.00;;
7879;SDS011;3985;49.366;2.738;2022-07-29T00:33:23;5.33;;;5.33;;
7879;SDS011;3985;49.366;2.738;2022-07-29T00:35:50;3.00;;;3.00;;
7879;SDS011;3985;49.366;2.738;2022-07-29T00:38:17;4.00;;;4.00;;
7879;SDS011;3985;49.366;2.738;2022-07-29T00:40:47;6.00;;;4.00;;
7879;SDS011;3985;49.366;2.738;2022-07-29T00:43:14;4.00;;;4.00;;
7879;SDS011;3985;49.366;2.738;2022-07-29T00:45:44;6.00;;;6.00;;
7879;SDS011;3985;49.366;2.738;2022-07-29T00:48:11;3.33;;;3.33;;
7879;SDS011;3985;49.366;2.738;2022-07-29T00:50:38;4.00;;;4.00;;
7879;SDS011;3985;49.366;2.738;2022-07-29T00:53:06;5.00;;;5.00;;
7879;SDS011;3985;49.366;2.738;2022-07-29T00:55:34;3.00;;;3.00;;
7879;SDS011;3985;49.366;2.738;2022-07-29T00:58:02;4.33;;;3.00;;
7879;SDS011;3985;49.366;2.738;2022-07-29T01:00:30;4.33;;;4.33;;
7879;SDS011;3985;49.366;2.738;2022-07-29T01:02:58;5.00;;;5.00;;
7879;SDS011;3985;49.366;2.738;2022-07-29T01:05:26;4.00;;;4.00;;
7879;SDS011;3985;49.366;2.738;2022-07-29T01:07:55;6.00;;;6.00;;
7879;SDS011;3985;49.366;2.738;2022-07-29T01:10:23;4.00;;;4.00;;
7879;SDS011;3985;49.366;2.738;2022-07-29T01:12:52;4.67;;;4.67;;
7879;SDS011;3985;49.366;2.738;2022-07-29T01:15:20;5.00;;;4.00;;
7879;SDS011;3985;49.366;2.738;2022-07-29T01:17:50;5.33;;;5.33;;
7879;SDS011;3985;49.366;2.738;2022-07-29T01:20:25;5.00;;;5.00;;
7879;SDS011;3985;49.366;2.738;2022-07-29T01:23:11;3.67;;;3.67;;
7879;SDS011;3985;49.366;2.738;2022-07-29T01:25:58;8.00;;;5.67;;
7879;SDS011;3985;49.366;2.738;2022-07-29T01:28:52;4.00;;;4.00;;
7879;SDS011;3985;49.366;2.738;2022-07-29T01:31:27;3.67;;;3.67;;
7879;SDS011;3985;49.366;2.738;2022-07-29T01:34:00;3.67;;;2.00;;
7879;SDS011;3985;49.366;2.738;2022-07-29T01:36:31;5.00;;;4.00;;
7879;SDS011;3985;49.366;2.738;2022-07-29T01:39:05;5.00;;;5.00;;
7879;SDS011;3985;49.366;2.738;2022-07-29T01:41:35;3.00;;;3.00;;
7879;SDS011;3985;49.366;2.738;2022-07-29T01:44:11;4.75;;;4.75;;
7879;SDS011;3985;49.366;2.738;2022-07-29T01:46:41;5.00;;;5.00;;
7879;SDS011;3985;49.366;2.738;2022-07-29T01:49:13;4.50;;;4.50;;
7879;SDS011;3985;49.366;2.738;2022-07-29T01:51:43;4.00;;;4.00;;
7879;SDS011;3985;49.366;2.738;2022-07-29T01:54:15;6.00;;;6.00;;
7879;SDS011;3985;49.366;2.738;2022-07-29T01:56:45;3.00;;;3.00;;
7879;SDS011;3985;49.366;2.738;2022-07-29T01:59:16;7.50;;;5.00;;
7879;SDS011;3985;49.366;2.738;2022-07-29T02:01:45;4.25;;;4.00;;
7879;SDS011;3985;49.366;2.738;2022-07-29T02:04:13;8.25;;;6.00;;
7879;SDS011;3985;49.366;2.738;2022-07-29T02:06:42;4.00;;;4.00;;
7879;SDS011;3985;49.366;2.738;2022-07-29T02:09:10;5.00;;;5.00;;
7879;SDS011;3985;49.366;2.738;2022-07-29T02:11:39;5.67;;;5.67;;
7879;SDS011;3985;49.366;2.738;2022-07-29T02:14:07;5.25;;;5.25;;
7879;SDS011;3985;49.366;2.738;2022-07-29T02:16:38;6.00;;;4.67;;
7879;SDS011;3985;49.366;2.738;2022-07-29T02:19:07;5.00;;;5.00;;
7879;SDS011;3985;49.366;2.738;2022-07-29T02:21:36;8.00;;;6.00;;
7879;SDS011;3985;49.366;2.738;2022-07-29T02:24:03;8.00;;;5.33;;
7879;SDS011;3985;49.366;2.738;2022-07-29T02:26:31;5.00;;;5.00;;
7879;SDS011;3985;49.366;2.738;2022-07-29T02:29:00;5.00;;;5.00;;
7879;SDS011;3985;49.366;2.738;2022-07-29T02:31:30;3.00;;;3.00;;
7879;SDS011;3985;49.366;2.738;2022-07-29T02:34:00;5.00;;;5.00;;
7879;SDS011;3985;49.366;2.738;2022-07-29T02:36:28;4.67;;;4.67;;
7879;SDS011;3985;49.366;2.738;2022-07-29T02:38:56;5.00;;;5.00;;
7879;SDS011;3985;49.366;2.738;2022-07-29T02:41:26;3.00;;;3.00;;
7879;SDS011;3985;49.366;2.738;2022-07-29T02:43:56;4.25;;;4.25;;
7879;SDS011;3985;49.366;2.738;2022-07-29T02:46:26;5.25;;;4.00;;
7879;SDS011;3985;49.366;2.738;2022-07-29T02:48:58;6.50;;;6.00;;
7879;SDS011;3985;49.366;2.738;2022-07-29T02:51:33;4.75;;;4.75;;
7879;SDS011;3985;49.366;2.738;2022-07-29T02:54:07;4.00;;;4.00;;
7879;SDS011;3985;49.366;2.738;2022-07-29T02:56:37;9.00;;;7.50;;
7879;SDS011;3985;49.366;2.738;2022-07-29T02:59:07;4.75;;;4.75;;
7879;SDS011;3985;49.366;2.738;2022-07-29T03:01:38;6.50;;;6.50;;
7879;SDS011;3985;49.366;2.738;2022-07-29T03:04:08;9.00;;;5.00;;
7879;SDS011;3985;49.366;2.738;2022-07-29T03:06:36;8.00;;;8.00;;
7879;SDS011;3985;49.366;2.738;2022-07-29T03:09:05;9.75;;;7.75;;
7879;SDS011;3985;49.366;2.738;2022-07-29T03:11:33;7.75;;;5.00;;
7879;SDS011;3985;49.366;2.738;2022-07-29T03:14:01;9.00;;;7.50;;
7879;SDS011;3985;49.366;2.738;2022-07-29T03:16:29;5.75;;;5.75;;
7879;SDS011;3985;49.366;2.738;2022-07-29T03:18:57;5.00;;;5.00;;
7879;SDS011;3985;49.366;2.738;2022-07-29T03:21:26;10.00;;;7.00;;
7879;SDS011;3985;49.366;2.738;2022-07-29T03:23:53;6.00;;;6.00;;
7879;SDS011;3985;49.366;2.738;2022-07-29T03:26:20;5.00;;;5.00;;
7879;SDS011;3985;49.366;2.738;2022-07-29T03:28:48;5.00;;;5.00;;
7879;SDS011;3985;49.366;2.738;2022-07-29T03:31:15;9.00;;;7.50;;
7879;SDS011;3985;49.366;2.738;2022-07-29T03:33:42;6.00;;;6.00;;
7879;SDS011;3985;49.366;2.738;2022-07-29T03:36:09;7.50;;;6.50;;
7879;SDS011;3985;49.366;2.738;2022-07-29T03:38:38;5.50;;;5.25;;
7879;SDS011;3985;49.366;2.738;2022-07-29T03:41:09;10.00;;;8.25;;
7879;SDS011;3985;49.366;2.738;2022-07-29T03:43:37;10.00;;;7.25;;
7879;SDS011;3985;49.366;2.738;2022-07-29T03:46:06;5.00;;;5.00;;
7879;SDS011;3985;49.366;2.738;2022-07-29T03:48:36;6.75;;;5.25;;
7879;SDS011;3985;49.366;2.738;2022-07-29T03:51:06;9.25;;;8.25;;
7879;SDS011;3985;49.366;2.738;2022-07-29T03:53:33;8.00;;;8.00;;
7879;SDS011;3985;49.366;2.738;2022-07-29T03:56:03;5.50;;;5.50;;
7879;SDS011;3985;49.366;2.738;2022-07-29T03:58:31;8.25;;;8.25;;
7879;SDS011;3985;49.366;2.738;2022-07-29T04:01:00;5.00;;;5.00;;
7879;SDS011;3985;49.366;2.738;2022-07-29T04:03:27;9.00;;;7.33;;
7879;SDS011;3985;49.366;2.738;2022-07-29T04:05:58;6.00;;;6.00;;
7879;SDS011;3985;49.366;2.738;2022-07-29T04:08:26;6.00;;;6.00;;
7879;SDS011;3985;49.366;2.738;2022-07-29T04:10:53;6.00;;;4.67;;
7879;SDS011;3985;49.366;2.738;2022-07-29T04:13:23;5.00;;;5.00;;
7879;SDS011;3985;49.366;2.738;2022-07-29T04:15:50;5.00;;;5.00;;
7879;SDS011;3985;49.366;2.738;2022-07-29T04:18:17;6.00;;;6.00;;
7879;SDS011;3985;49.366;2.738;2022-07-29T04:20:45;6.00;;;6.00;;
7879;SDS011;3985;49.366;2.738;2022-07-29T04:23:12;5.00;;;5.00;;
7879;SDS011;3985;49.366;2.738;2022-07-29T04:25:40;5.33;;;5.00;;
7879;SDS011;3985;49.366;2.738;2022-07-29T04:28:08;3.00;;;3.00;;
7879;SDS011;3985;49.366;2.738;2022-07-29T04:30:37;5.33;;;3.67;;
7879;SDS011;3985;49.366;2.738;2022-07-29T04:33:05;6.67;;;6.67;;
7879;SDS011;3985;49.366;2.738;2022-07-29T04:35:34;5.00;;;5.00;;
7879;SDS011;3985;49.366;2.738;2022-07-29T04:38:02;8.33;;;5.67;;
7879;SDS011;3985;49.366;2.738;2022-07-29T04:40:30;5.00;;;5.00;;
7879;SDS011;3985;49.366;2.738;2022-07-29T04:42:58;5.67;;;5.67;;
7879;SDS011;3985;49.366;2.738;2022-07-29T04:45:26;5.00;;;5.00;;
7879;SDS011;3985;49.366;2.738;2022-07-29T04:47:56;3.00;;;3.00;;
7879;SDS011;3985;49.366;2.738;2022-07-29T04:50:23;6.00;;;6.00;;
7879;SDS011;3985;49.366;2.738;2022-07-29T04:52:50;9.33;;;8.33;;
7879;SDS011;3985;49.366;2.738;2022-07-29T04:55:18;6.00;;;6.00;;
7879;SDS011;3985;49.366;2.738;2022-07-29T04:57:45;6.33;;;4.67;;
7879;SDS011;3985;49.366;2.738;2022-07-29T05:00:13;8.00;;;5.33;;
7879;SDS011;3985;49.366;2.738;2022-07-29T05:02:40;4.00;;;4.00;;
7879;SDS011;3985;49.366;2.738;2022-07-29T05:05:09;4.33;;;4.33;;
7879;SDS011;3985;49.366;2.738;2022-07-29T05:07:36;5.67;;;5.67;;
7879;SDS011;3985;49.366;2.738;2022-07-29T05:10:04;7.33;;;7.33;;
7879;SDS011;3985;49.366;2.738;2022-07-29T05:12:31;5.00;;;5.00;;
7879;SDS011;3985;49.366;2.738;2022-07-29T05:14:59;9.67;;;7.33;;
7879;SDS011;3985;49.366;2.738;2022-07-29T05:17:26;5.33;;;5.33;;
7879;SDS011;3985;49.366;2.738;2022-07-29T05:19:54;4.75;;;4.75;;
7879;SDS011;3985;49.366;2.738;2022-07-29T05:22:22;9.00;;;9.00;;
7879;SDS011;3985;49.366;2.738;2022-07-29T05:24:50;5.75;;;5.75;;
7879;SDS011;3985;49.366;2.738;2022-07-29T05:27:17;6.50;;;6.00;;
7879;SDS011;3985;49.366;2.738;2022-07-29T05:29:45;8.75;;;6.25;;
7879;SDS011;3985;49.366;2.738;2022-07-29T05:32:12;9.75;;;9.75;;
7879;SDS011;3985;49.366;2.738;2022-07-29T05:34:40;14.00;;;12.67;;
7879;SDS011;3985;49.366;2.738;2022-07-29T05:37:07;11.25;;;11.25;;
7879;SDS011;3985;49.366;2.738;2022-07-29T05:39:36;9.00;;;9.00;;
7879;SDS011;3985;49.366;2.738;2022-07-29T05:42:05;9.75;;;8.25;;
7879;SDS011;3985;49.366;2.738;2022-07-29T05:44:35;11.00;;;11.00;;
7879;SDS011;3985;49.366;2.738;2022-07-29T05:47:03;12.25;;;12.25;;
7879;SDS011;3985;49.366;2.738;2022-07-29T05:49:31;13.00;;;13.00;;
7879;SDS011;3985;49.366;2.738;2022-07-29T05:51:59;14.75;;;13.00;;
7879;SDS011;3985;49.366;2.738;2022-07-29T05:54:26;13.00;;;13.00;;
7879;SDS011;3985;49.366;2.738;2022-07-29T05:56:55;12.50;;;12.50;;
7879;SDS011;3985;49.366;2.738;2022-07-29T05:59:22;8.25;;;7.25;;
7879;SDS011;3985;49.366;2.738;2022-07-29T06:01:50;8.50;;;7.75;;
7879;SDS011;3985;49.366;2.738;2022-07-29T06:04:17;14.00;;;13.25;;
7879;SDS011;3985;49.366;2.738;2022-07-29T06:06:45;14.50;;;14.00;;
7879;SDS011;3985;49.366;2.738;2022-07-29T06:09:12;13.50;;;10.75;;
7879;SDS011;3985;49.366;2.738;2022-07-29T06:11:40;10.50;;;10.50;;
7879;SDS011;3985;49.366;2.738;2022-07-29T06:14:08;10.50;;;10.50;;
7879;SDS011;3985;49.366;2.738;2022-07-29T06:16:36;11.00;;;11.00;;
7879;SDS011;3985;49.366;2.738;2022-07-29T06:19:03;9.50;;;8.50;;
7879;SDS011;3985;49.366;2.738;2022-07-29T06:21:30;9.25;;;9.25;;
7879;SDS011;3985;49.366;2.738;2022-07-29T06:23:58;13.75;;;12.25;;
7879;SDS011;3985;49.366;2.738;2022-07-29T06:26:25;9.00;;;9.00;;
7879;SDS011;3985;49.366;2.738;2022-07-29T06:28:53;6.00;;;6.00;;
7879;SDS011;3985;49.366;2.738;2022-07-29T06:31:21;11.00;;;9.00;;
7879;SDS011;3985;49.366;2.738;2022-07-29T06:33:48;8.33;;;8.33;;
7879;SDS011;3985;49.366;2.738;2022-07-29T06:36:16;9.75;;;9.75;;
7879;SDS011;3985;49.366;2.738;2022-07-29T06:38:43;11.00;;;9.75;;
7879;SDS011;3985;49.366;2.738;2022-07-29T06:41:10;9.00;;;7.50;;
7879;SDS011;3985;49.366;2.738;2022-07-29T06:43:41;12.25;;;12.25;;
7879;SDS011;3985;49.366;2.738;2022-07-29T06:46:10;15.25;;;10.00;;
7879;SDS011;3985;49.366;2.738;2022-07-29T06:48:40;10.50;;;10.50;;
7879;SDS011;3985;49.366;2.738;2022-07-29T06:51:08;10.00;;;10.00;;
7879;SDS011;3985;49.366;2.738;2022-07-29T06:53:36;8.75;;;8.00;;
7879;SDS011;3985;49.366;2.738;2022-07-29T06:56:05;5.00;;;5.00;;
7879;SDS011;3985;49.366;2.738;2022-07-29T06:58:33;9.25;;;9.25;;
7879;SDS011;3985;49.366;2.738;2022-07-29T07:01:01;11.25;;;11.25;;
7879;SDS011;3985;49.366;2.738;2022-07-29T07:03:29;9.00;;;9.00;;
7879;SDS011;3985;49.366;2.738;2022-07-29T07:05:59;12.75;;;11.25;;
7879;SDS011;3985;49.366;2.738;2022-07-29T07:08:27;12.50;;;11.25;;
7879;SDS011;3985;49.366;2.738;2022-07-29T07:10:54;9.25;;;8.50;;
7879;SDS011;3985;49.366;2.738;2022-07-29T07:13:22;8.50;;;8.50;;
7879;SDS011;3985;49.366;2.738;2022-07-29T07:15:49;10.50;;;10.50;;
7879;SDS011;3985;49.366;2.738;2022-07-29T07:18:17;11.75;;;9.75;;
7879;SDS011;3985;49.366;2.738;2022-07-29T07:20:44;10.25;;;10.25;;
7879;SDS011;3985;49.366;2.738;2022-07-29T07:23:13;8.75;;;8.75;;
7879;SDS011;3985;49.366;2.738;2022-07-29T07:25:41;7.00;;;7.00;;
7879;SDS011;3985;49.366;2.738;2022-07-29T07:28:09;8.25;;;8.25;;
7879;SDS011;3985;49.366;2.738;2022-07-29T07:30:36;7.25;;;7.25;;
7879;SDS011;3985;49.366;2.738;2022-07-29T07:33:04;7.00;;;5.25;;
7879;SDS011;3985;49.366;2.738;2022-07-29T07:35:32;12.00;;;9.25;;
7879;SDS011;3985;49.366;2.738;2022-07-29T07:37:59;5.25;;;5.25;;
7879;SDS011;3985;49.366;2.738;2022-07-29T07:40:28;7.50;;;7.50;;
7879;SDS011;3985;49.366;2.738;2022-07-29T07:42:55;6.50;;;6.25;;
7879;SDS011;3985;49.366;2.738;2022-07-29T07:45:22;6.00;;;6.00;;
7879;SDS011;3985;49.366;2.738;2022-07-29T07:47:50;6.00;;;6.00;;
7879;SDS011;3985;49.366;2.738;2022-07-29T07:50:17;6.40;;;6.40;;
7879;SDS011;3985;49.366;2.738;2022-07-29T07:52:48;6.60;;;6.60;;
7879;SDS011;3985;49.366;2.738;2022-07-29T07:55:16;7.00;;;7.00;;
7879;SDS011;3985;49.366;2.738;2022-07-29T07:57:45;6.60;;;6.60;;
7879;SDS011;3985;49.366;2.738;2022-07-29T08:00:13;5.00;;;5.00;;
7879;SDS011;3985;49.366;2.738;2022-07-29T08:02:41;6.80;;;6.80;;
7879;SDS011;3985;49.366;2.738;2022-07-29T08:05:10;7.00;;;7.00;;
7879;SDS011;3985;49.366;2.738;2022-07-29T08:07:41;5.40;;;5.40;;
7879;SDS011;3985;49.366;2.738;2022-07-29T08:10:09;5.40;;;5.40;;
7879;SDS011;3985;49.366;2.738;2022-07-29T08:12:36;4.80;;;4.80;;
7879;SDS011;3985;49.366;2.738;2022-07-29T08:15:06;6.60;;;6.60;;
7879;SDS011;3985;49.366;2.738;2022-07-29T08:17:35;7.60;;;7.60;;
7879;SDS011;3985;49.366;2.738;2022-07-29T08:20:03;6.80;;;6.80;;
7879;SDS011;3985;49.366;2.738;2022-07-29T08:22:31;5.60;;;5.60;;
7879;SDS011;3985;49.366;2.738;2022-07-29T08:24:58;7.40;;;6.60;;
7879;SDS011;3985;49.366;2.738;2022-07-29T08:27:25;6.00;;;6.00;;
7879;SDS011;3985;49.366;2.738;2022-07-29T08:29:54;6.00;;;6.00;;
7879;SDS011;3985;49.366;2.738;2022-07-29T08:32:23;5.40;;;4.40;;
7879;SDS011;3985;49.366;2.738;2022-07-29T08:34:50;5.40;;;5.40;;
7879;SDS011;3985;49.366;2.738;2022-07-29T08:37:18;6.60;;;6.60;;
7879;SDS011;3985;49.366;2.738;2022-07-29T08:39:46;5.20;;;4.00;;
7879;SDS011;3985;49.366;2.738;2022-07-29T08:42:15;4.40;;;4.40;;
7879;SDS011;3985;49.366;2.738;2022-07-29T08:44:44;4.40;;;4.40;;
7879;SDS011;3985;49.366;2.738;2022-07-29T08:47:14;6.20;;;6.20;;
7879;SDS011;3985;49.366;2.738;2022-07-29T08:49:45;3.20;;;1.60;;
7879;SDS011;3985;49.366;2.738;2022-07-29T08:52:14;4.40;;;4.40;;
7879;SDS011;3985;49.366;2.738;2022-07-29T08:54:44;4.20;;;4.20;;
7879;SDS011;3985;49.366;2.738;2022-07-29T08:57:14;5.00;;;5.00;;
7879;SDS011;3985;49.366;2.738;2022-07-29T08:59:42;6.80;;;5.00;;
7879;SDS011;3985;49.366;2.738;2022-07-29T09:02:11;2.80;;;2.80;;
7879;SDS011;3985;49.366;2.738;2022-07-29T09:04:43;2.80;;;2.80;;
7879;SDS011;3985;49.366;2.738;2022-07-29T09:07:13;2.00;;;2.00;;
7879;SDS011;3985;49.366;2.738;2022-07-29T09:09:42;2.20;;;2.20;;
7879;SDS011;3985;49.366;2.738;2022-07-29T09:12:09;2.00;;;2.00;;
7879;SDS011;3985;49.366;2.738;2022-07-29T09:14:37;1.00;;;1.00;;
7879;SDS011;3985;49.366;2.738;2022-07-29T09:17:04;2.00;;;2.00;;
7879;SDS011;3985;49.366;2.738;2022-07-29T09:19:33;2.40;;;2.40;;
7879;SDS011;3985;49.366;2.738;2022-07-29T09:22:05;1.00;;;1.00;;
7879;SDS011;3985;49.366;2.738;2022-07-29T09:24:39;2.20;;;2.00;;
7879;SDS011;3985;49.366;2.738;2022-07-29T09:27:08;2.80;;;2.00;;
7879;SDS011;3985;49.366;2.738;2022-07-29T09:29:37;2.00;;;2.00;;
7879;SDS011;3985;49.366;2.738;2022-07-29T09:32:06;1.00;;;1.00;;
7879;SDS011;3985;49.366;2.738;2022-07-29T09:34:35;1.00;;;1.00;;
7879;SDS011;3985;49.366;2.738;2022-07-29T09:37:04;1.80;;;1.80;;
7879;SDS011;3985;49.366;2.738;2022-07-29T09:39:32;1.20;;;0.60;;
7879;SDS011;3985;49.366;2.738;2022-07-29T09:42:01;1.40;;;1.40;;
7879;SDS011;3985;49.366;2.738;2022-07-29T09:44:45;1.00;;;1.00;;
7879;SDS011;3985;49.366;2.738;2022-07-29T09:47:14;1.60;;;1.60;;
7879;SDS011;3985;49.366;2.738;2022-07-29T09:49:53;2.00;;;2.00;;
7879;SDS011;3985;49.366;2.738;2022-07-29T09:52:24;2.00;;;2.00;;
7879;SDS011;3985;49.366;2.738;2022-07-29T09:54:52;2.60;;;2.60;;
7879;SDS011;3985;49.366;2.738;2022-07-29T09:57:24;3.20;;;2.00;;
7879;SDS011;3985;49.366;2.738;2022-07-29T09:59:56;1.80;;;1.80;;
7879;SDS011;3985;49.366;2.738;2022-07-29T10:02:27;2.20;;;2.20;;
7879;SDS011;3985;49.366;2.738;2022-07-29T10:04:56;1.00;;;1.00;;
7879;SDS011;3985;49.366;2.738;2022-07-29T10:07:25;1.20;;;1.20;;
7879;SDS011;3985;49.366;2.738;2022-07-29T10:09:55;2.00;;;2.00;;
7879;SDS011;3985;49.366;2.738;2022-07-29T10:12:23;3.00;;;3.00;;
7879;SDS011;3985;49.366;2.738;2022-07-29T10:14:51;2.40;;;2.40;;
7879;SDS011;3985;49.366;2.738;2022-07-29T10:17:18;0.00;;;0.00;;
7879;SDS011;3985;49.366;2.738;2022-07-29T10:19:45;1.00;;;1.00;;
7879;SDS011;3985;49.366;2.738;2022-07-29T10:22:13;2.00;;;2.00;;
7879;SDS011;3985;49.366;2.738;2022-07-29T10:24:42;1.60;;;1.40;;
7879;SDS011;3985;49.366;2.738;2022-07-29T10:27:09;1.00;;;1.00;;
7879;SDS011;3985;49.366;2.738;2022-07-29T10:29:40;2.20;;;2.20;;
7879;SDS011;3985;49.366;2.738;2022-07-29T10:32:14;1.40;;;1.40;;
7879;SDS011;3985;49.366;2.738;2022-07-29T10:40:51;2.00;;;2.00;;
7879;SDS011;3985;49.366;2.738;2022-07-29T10:43:42;1.60;;;1.60;;
7879;SDS011;3985;49.366;2.738;2022-07-29T10:46:14;1.80;;;1.80;;
7879;SDS011;3985;49.366;2.738;2022-07-29T10:57:33;2.00;;;2.00;;
7879;SDS011;3985;49.366;2.738;2022-07-29T11:02:52;3.00;;;2.00;;
7879;SDS011;3985;49.366;2.738;2022-07-29T11:05:21;2.00;;;2.00;;
7879;SDS011;3985;49.366;2.738;2022-07-29T11:10:48;2.00;;;2.00;;
7879;SDS011;3985;49.366;2.738;2022-07-29T11:16:15;3.40;;;3.00;;
7879;SDS011;3985;49.366;2.738;2022-07-29T11:21:46;1.00;;;1.00;;
7879;SDS011;3985;49.366;2.738;2022-07-29T11:24:15;3.00;;;3.00;;
7879;SDS011;3985;49.366;2.738;2022-07-29T11:26:44;2.00;;;2.00;;
7879;SDS011;3985;49.366;2.738;2022-07-29T11:29:18;3.40;;;3.40;;
7879;SDS011;3985;49.366;2.738;2022-07-29T11:31:48;3.00;;;2.60;;
7879;SDS011;3985;49.366;2.738;2022-07-29T11:34:20;3.80;;;2.00;;
7879;SDS011;3985;49.366;2.738;2022-07-29T11:39:41;3.00;;;3.00;;
7879;SDS011;3985;49.366;2.738;2022-07-29T11:45:11;3.20;;;3.20;;
7879;SDS011;3985;49.366;2.738;2022-07-29T11:47:47;2.60;;;2.60;;
7879;SDS011;3985;49.366;2.738;2022-07-29T11:50:16;1.60;;;1.60;;
7879;SDS011;3985;49.366;2.738;2022-07-29T11:52:54;2.00;;;2.00;;
7879;SDS011;3985;49.366;2.738;2022-07-29T11:55:22;2.00;;;2.00;;
7879;SDS011;3985;49.366;2.738;2022-07-29T11:57:51;2.00;;;2.00;;
7879;SDS011;3985;49.366;2.738;2022-07-29T12:00:22;1.80;;;1.80;;
7879;SDS011;3985;49.366;2.738;2022-07-29T12:02:50;0.00;;;0.00;;
7879;SDS011;3985;49.366;2.738;2022-07-29T12:05:18;1.00;;;1.00;;
7879;SDS011;3985;49.366;2.738;2022-07-29T12:07:46;1.40;;;1.40;;
7879;SDS011;3985;49.366;2.738;2022-07-29T12:10:14;1.00;;;1.00;;
7879;SDS011;3985;49.366;2.738;2022-07-29T12:12:41;1.00;;;1.00;;
7879;SDS011;3985;49.366;2.738;2022-07-29T12:15:15;2.60;;;2.60;;
7879;SDS011;3985;49.366;2.738;2022-07-29T12:17:47;1.20;;;1.20;;
7879;SDS011;3985;49.366;2.738;2022-07-29T12:20:21;3.00;;;3.00;;
7879;SDS011;3985;49.366;2.738;2022-07-29T12:22:50;1.80;;;1.00;;
7879;SDS011;3985;49.366;2.738;2022-07-29T12:25:19;1.00;;;1.00;;
7879;SDS011;3985;49.366;2.738;2022-07-29T12:27:47;1.20;;;1.20;;
7879;SDS011;3985;49.366;2.738;2022-07-29T12:30:24;1.00;;;1.00;;
7879;SDS011;3985;49.366;2.738;2022-07-29T12:33:17;3.20;;;2.00;;
7879;SDS011;3985;49.366;2.738;2022-07-29T12:35:50;2.00;;;2.00;;
7879;SDS011;3985;49.366;2.738;2022-07-29T12:38:19;2.00;;;2.00;;
7879;SDS011;3985;49.366;2.738;2022-07-29T12:40:48;0.60;;;0.60;;
7879;SDS011;3985;49.366;2.738;2022-07-29T12:43:17;1.00;;;1.00;;
7879;SDS011;3985;49.366;2.738;2022-07-29T12:45:49;1.60;;;1.60;;
7879;SDS011;3985;49.366;2.738;2022-07-29T12:48:31;0.60;;;0.60;;
7879;SDS011;3985;49.366;2.738;2022-07-29T12:51:00;1.00;;;1.00;;
7879;SDS011;3985;49.366;2.738;2022-07-29T12:53:28;1.20;;;1.00;;
7879;SDS011;3985;49.366;2.738;2022-07-29T12:55:56;1.60;;;1.60;;
7879;SDS011;3985;49.366;2.738;2022-07-29T12:58:27;1.00;;;1.00;;
7879;SDS011;3985;49.366;2.738;2022-07-29T13:01:02;1.00;;;1.00;;
7879;SDS011;3985;49.366;2.738;2022-07-29T13:03:46;1.00;;;1.00;;
7879;SDS011;3985;49.366;2.738;2022-07-29T13:06:27;1.00;;;1.00;;
7879;SDS011;3985;49.366;2.738;2022-07-29T13:09:05;3.60;;;2.00;;
7879;SDS011;3985;49.366;2.738;2022-07-29T13:11:35;2.80;;;2.40;;
7879;SDS011;3985;49.366;2.738;2022-07-29T13:14:04;2.00;;;2.00;;
7879;SDS011;3985;49.366;2.738;2022-07-29T13:16:33;1.20;;;1.00;;
7879;SDS011;3985;49.366;2.738;2022-07-29T13:19:06;1.00;;;1.00;;
7879;SDS011;3985;49.366;2.738;2022-07-29T13:21:34;2.00;;;2.00;;
7879;SDS011;3985;49.366;2.738;2022-07-29T13:24:03;1.80;;;1.80;;
7879;SDS011;3985;49.366;2.738;2022-07-29T13:26:31;1.40;;;1.40;;
7879;SDS011;3985;49.366;2.738;2022-07-29T13:28:58;3.60;;;2.00;;
7879;SDS011;3985;49.366;2.738;2022-07-29T13:31:26;2.00;;;2.00;;
7879;SDS011;3985;49.366;2.738;2022-07-29T13:33:53;1.40;;;1.40;;
7879;SDS011;3985;49.366;2.738;2022-07-29T13:36:22;3.60;;;3.60;;
7879;SDS011;3985;49.366;2.738;2022-07-29T13:38:49;1.20;;;1.20;;
7879;SDS011;3985;49.366;2.738;2022-07-29T13:41:17;2.40;;;2.40;;
7879;SDS011;3985;49.366;2.738;2022-07-29T13:43:44;1.60;;;1.60;;
7879;SDS011;3985;49.366;2.738;2022-07-29T13:46:12;2.00;;;2.00;;
7879;SDS011;3985;49.366;2.738;2022-07-29T13:48:39;1.00;;;1.00;;
7879;SDS011;3985;49.366;2.738;2022-07-29T13:51:07;2.00;;;2.00;;
7879;SDS011;3985;49.366;2.738;2022-07-29T13:53:36;0.40;;;0.40;;
7879;SDS011;3985;49.366;2.738;2022-07-29T13:56:03;1.40;;;1.40;;
7879;SDS011;3985;49.366;2.738;2022-07-29T13:58:32;2.00;;;2.00;;
7879;SDS011;3985;49.366;2.738;2022-07-29T14:00:59;3.00;;;1.20;;
7879;SDS011;3985;49.366;2.738;2022-07-29T14:03:27;1.00;;;1.00;;
7879;SDS011;3985;49.366;2.738;2022-07-29T14:05:54;1.60;;;1.60;;
7879;SDS011;3985;49.366;2.738;2022-07-29T14:08:25;2.00;;;2.00;;
7879;SDS011;3985;49.366;2.738;2022-07-29T14:10:53;2.40;;;2.40;;
7879;SDS011;3985;49.366;2.738;2022-07-29T14:13:21;2.40;;;2.40;;
7879;SDS011;3985;49.366;2.738;2022-07-29T14:15:48;1.20;;;1.20;;
7879;SDS011;3985;49.366;2.738;2022-07-29T14:18:15;1.80;;;1.80;;
7879;SDS011;3985;49.366;2.738;2022-07-29T14:20:43;2.00;;;2.00;;
7879;SDS011;3985;49.366;2.738;2022-07-29T14:23:10;3.00;;;2.80;;
7879;SDS011;3985;49.366;2.738;2022-07-29T14:25:37;2.00;;;2.00;;
7879;SDS011;3985;49.366;2.738;2022-07-29T14:28:07;2.40;;;2.40;;
7879;SDS011;3985;49.366;2.738;2022-07-29T14:30:34;4.00;;;4.00;;
7879;SDS011;3985;49.366;2.738;2022-07-29T14:33:02;2.20;;;2.20;;
7879;SDS011;3985;49.366;2.738;2022-07-29T14:35:29;3.00;;;3.00;;
7879;SDS011;3985;49.366;2.738;2022-07-29T14:37:56;3.00;;;3.00;;
7879;SDS011;3985;49.366;2.738;2022-07-29T14:40:23;1.60;;;1.60;;
7879;SDS011;3985;49.366;2.738;2022-07-29T14:42:51;5.80;;;3.20;;
7879;SDS011;3985;49.366;2.738;2022-07-29T14:45:20;2.80;;;2.80;;
7879;SDS011;3985;49.366;2.738;2022-07-29T14:47:47;3.40;;;3.00;;
7879;SDS011;3985;49.366;2.738;2022-07-29T14:50:15;4.00;;;2.80;;
7879;SDS011;3985;49.366;2.738;2022-07-29T14:52:44;3.00;;;3.00;;
7879;SDS011;3985;49.366;2.738;2022-07-29T14:55:11;3.00;;;3.00;;
7879;SDS011;3985;49.366;2.738;2022-07-29T14:57:39;2.20;;;1.80;;
7879;SDS011;3985;49.366;2.738;2022-07-29T15:00:07;2.20;;;2.20;;
7879;SDS011;3985;49.366;2.738;2022-07-29T15:02:37;1.80;;;1.80;;
7879;SDS011;3985;49.366;2.738;2022-07-29T15:05:05;2.00;;;2.00;;
7879;SDS011;3985;49.366;2.738;2022-07-29T15:07:32;2.00;;;2.00;;
7879;SDS011;3985;49.366;2.738;2022-07-29T15:10:00;2.60;;;2.60;;
7879;SDS011;3985;49.366;2.738;2022-07-29T15:12:29;2.00;;;2.00;;
7879;SDS011;3985;49.366;2.738;2022-07-29T15:14:57;4.60;;;3.80;;
7879;SDS011;3985;49.366;2.738;2022-07-29T15:17:24;3.60;;;3.60;;
7879;SDS011;3985;49.366;2.738;2022-07-29T15:19:53;2.00;;;2.00;;
7879;SDS011;3985;49.366;2.738;2022-07-29T15:22:21;4.00;;;2.80;;
7879;SDS011;3985;49.366;2.738;2022-07-29T15:24:48;2.40;;;2.40;;
7879;SDS011;3985;49.366;2.738;2022-07-29T15:27:16;2.40;;;2.40;;
7879;SDS011;3985;49.366;2.738;2022-07-29T15:29:43;3.20;;;3.20;;
7879;SDS011;3985;49.366;2.738;2022-07-29T15:32:11;3.00;;;3.00;;
7879;SDS011;3985;49.366;2.738;2022-07-29T15:34:39;2.80;;;2.80;;
7879;SDS011;3985;49.366;2.738;2022-07-29T15:37:07;3.00;;;3.00;;
7879;SDS011;3985;49.366;2.738;2022-07-29T15:39:36;3.40;;;3.40;;
7879;SDS011;3985;49.366;2.738;2022-07-29T15:42:03;3.00;;;3.00;;
7879;SDS011;3985;49.366;2.738;2022-07-29T15:44:31;5.20;;;3.80;;
7879;SDS011;3985;49.366;2.738;2022-07-29T15:47:06;2.40;;;2.00;;
7879;SDS011;3985;49.366;2.738;2022-07-29T15:49:33;2.20;;;2.20;;
7879;SDS011;3985;49.366;2.738;2022-07-29T15:52:03;3.00;;;3.00;;
7879;SDS011;3985;49.366;2.738;2022-07-29T15:54:34;3.00;;;3.00;;
7879;SDS011;3985;49.366;2.738;2022-07-29T15:57:03;3.00;;;3.00;;